CheckWX is a tool to help pilots better visualize weather data.  It is not intended as a substitute for an official pre-flight weather briefing.

21:06:56 UTC

KGCC METAR
Gillette-Campbell County Airport
Gillette, Wyoming, USA
Current

14 mins ago

KGCC 232053Z AUTO 32009KT 10SM CLR M01/M13 A2991 RMK AO2 SLP180 T10061133 58001
Observed
Feb-23 @ 20:53 UTC
Wind
  • 320° at 9 KTS
Visibility
10 SM
Flight Rules
VFR
Cloud Levels
  • Clear skies
Temperature
-1°C / 30°F
Dewpoint
-13°C / 9°F
Humidity
40%
Altimeter
29.91" Hg
Pressure
1018 hPa
Previous

1 hour ago

KGCC 231953Z AUTO 28011KT 10SM CLR M02/M14 A2991 RMK AO2 SLP174 T10171139
Observed
Feb-23 @ 19:53 UTC
Wind
  • 280° at 11 KTS
Visibility
10 SM
Flight Rules
VFR
Cloud Levels
  • Clear skies
Temperature
-2°C / 28°F
Dewpoint
-14°C / 7°F
Humidity
40%
Altimeter
29.91" Hg
Pressure
1017.4 hPa
Previous

2 hours ago

KGCC 231853Z AUTO 28007KT 10SM CLR M01/M14 A2992 RMK AO2 SLP182 T10111144
Observed
Feb-23 @ 18:53 UTC
Wind
  • 280° at 7 KTS
Visibility
10 SM
Flight Rules
VFR
Cloud Levels
  • Clear skies
Temperature
-1°C / 30°F
Dewpoint
-14°C / 7°F
Humidity
37%
Altimeter
29.92" Hg
Pressure
1018.2 hPa